sensor_id;sensor_type;location;lat;lon;timestamp;pressure;altitude;pressure_sealevel;temperature;humidity
49759;BME280;70329;45.524;10.194;2023-08-06T13:50:14;98930.56;;;30.54;22.05
49759;BME280;70329;45.524;10.194;2023-08-06T13:52:39;98920.06;;;30.55;21.80
49759;BME280;70329;45.524;10.194;2023-08-06T13:55:06;98927.84;;;30.67;19.81
49759;BME280;70329;45.524;10.194;2023-08-06T13:57:32;98929.72;;;30.74;20.36
49759;BME280;70329;45.524;10.194;2023-08-06T13:59:57;98932.28;;;30.84;21.10
49759;BME280;70329;45.524;10.194;2023-08-06T14:02:23;98927.50;;;30.81;20.06
49759;BME280;70329;45.524;10.194;2023-08-06T14:04:48;98929.00;;;30.70;20.83
49759;BME280;70329;45.524;10.194;2023-08-06T14:07:13;98932.72;;;30.83;20.93
49759;BME280;70329;45.524;10.194;2023-08-06T14:09:39;98923.00;;;30.68;20.18
49759;BME280;70329;45.524;10.194;2023-08-06T14:12:05;98928.38;;;30.62;20.59
49759;BME280;70329;45.524;10.194;2023-08-06T14:14:31;98932.00;;;30.63;20.72
49759;BME280;70329;45.524;10.194;2023-08-06T14:16:56;98928.47;;;30.58;20.62
49759;BME280;70329;45.524;10.194;2023-08-06T14:19:22;98924.41;;;30.60;20.32
49759;BME280;70329;45.524;10.194;2023-08-06T14:21:47;98919.78;;;30.66;21.29
49759;BME280;70329;45.524;10.194;2023-08-06T14:24:13;98936.59;;;30.73;21.54
49759;BME280;70329;45.524;10.194;2023-08-06T14:26:38;98938.16;;;30.57;20.71
49759;BME280;70329;45.524;10.194;2023-08-06T14:29:04;98929.41;;;30.52;20.10
49759;BME280;70329;45.524;10.194;2023-08-06T14:31:29;98933.03;;;30.52;21.13
49759;BME280;70329;45.524;10.194;2023-08-06T14:33:55;98929.81;;;30.70;21.32
49759;BME280;70329;45.524;10.194;2023-08-06T14:36:20;98940.50;;;30.63;21.36
49759;BME280;70329;45.524;10.194;2023-08-06T14:38:46;98924.28;;;30.47;20.60
49759;BME280;70329;45.524;10.194;2023-08-06T14:41:11;98936.66;;;30.53;21.68
49759;BME280;70329;45.524;10.194;2023-08-06T14:43:36;98930.94;;;30.56;21.23
49759;BME280;70329;45.524;10.194;2023-08-06T14:46:02;98938.34;;;30.67;21.85
49759;BME280;70329;45.524;10.194;2023-08-06T14:48:28;98930.34;;;30.81;21.48
49759;BME280;70329;45.524;10.194;2023-08-06T14:50:54;98942.06;;;30.64;21.50
49759;BME280;70329;45.524;10.194;2023-08-06T14:53:20;98944.53;;;30.78;21.40
49759;BME280;70329;45.524;10.194;2023-08-06T14:55:45;98946.03;;;30.82;21.55
49759;BME280;70329;45.524;10.194;2023-08-06T14:58:10;98944.13;;;30.43;20.82
49759;BME280;70329;45.524;10.194;2023-08-06T15:00:36;98952.13;;;30.65;20.81
49759;BME280;70329;45.524;10.194;2023-08-06T15:03:01;98950.88;;;30.49;21.08
49759;BME280;70329;45.524;10.194;2023-08-06T15:05:27;98966.25;;;30.48;21.70
49759;BME280;70329;45.524;10.194;2023-08-06T15:07:52;98959.00;;;30.47;20.62
49759;BME280;70329;45.524;10.194;2023-08-06T15:10:18;98967.47;;;30.47;21.01
49759;BME280;70329;45.524;10.194;2023-08-06T15:12:44;98964.91;;;30.53;20.76
49759;BME280;70329;45.524;10.194;2023-08-06T15:15:10;98969.50;;;30.47;21.03
49759;BME280;70329;45.524;10.194;2023-08-06T15:17:36;98968.00;;;30.42;20.64
49759;BME280;70329;45.524;10.194;2023-08-06T15:20:02;98975.59;;;30.45;20.91
49759;BME280;70329;45.524;10.194;2023-08-06T15:22:28;98961.63;;;30.38;21.24
49759;BME280;70329;45.524;10.194;2023-08-06T15:24:56;98970.44;;;30.40;21.55
49759;BME280;70329;45.524;10.194;2023-08-06T15:27:23;98983.41;;;30.18;21.01
49759;BME280;70329;45.524;10.194;2023-08-06T15:29:48;98971.09;;;30.28;21.27
49759;BME280;70329;45.524;10.194;2023-08-06T15:32:14;98975.44;;;30.33;21.20
49759;BME280;70329;45.524;10.194;2023-08-06T15:34:39;98978.63;;;30.15;20.93
49759;BME280;70329;45.524;10.194;2023-08-06T15:37:05;98976.41;;;30.07;20.82
49759;BME280;70329;45.524;10.194;2023-08-06T15:39:30;98983.84;;;30.17;21.42
49759;BME280;70329;45.524;10.194;2023-08-06T15:41:56;98977.56;;;30.09;21.39
49759;BME280;70329;45.524;10.194;2023-08-06T15:44:22;98968.34;;;30.05;21.09
49759;BME280;70329;45.524;10.194;2023-08-06T15:46:47;98980.09;;;29.84;20.89
49759;BME280;70329;45.524;10.194;2023-08-06T15:49:13;98977.28;;;29.84;21.26
49759;BME280;70329;45.524;10.194;2023-08-06T15:51:38;98981.47;;;29.95;21.17
49759;BME280;70329;45.524;10.194;2023-08-06T15:54:03;98984.09;;;29.86;21.58
49759;BME280;70329;45.524;10.194;2023-08-06T15:56:29;98983.91;;;29.93;21.44
49759;BME280;70329;45.524;10.194;2023-08-06T15:58:55;98981.25;;;29.86;21.29
49759;BME280;70329;45.524;10.194;2023-08-06T16:01:20;98985.00;;;29.80;21.29
49759;BME280;70329;45.524;10.194;2023-08-06T16:03:46;98988.31;;;29.75;21.47
49759;BME280;70329;45.524;10.194;2023-08-06T16:06:11;98989.63;;;29.70;21.46
49759;BME280;70329;45.524;10.194;2023-08-06T16:08:37;98987.84;;;29.76;21.93
49759;BME280;70329;45.524;10.194;2023-08-06T16:11:03;98988.00;;;29.69;22.23
49759;BME280;70329;45.524;10.194;2023-08-06T16:13:30;98984.75;;;29.71;21.42
49759;BME280;70329;45.524;10.194;2023-08-06T16:15:56;98987.56;;;29.71;21.16
49759;BME280;70329;45.524;10.194;2023-08-06T16:18:21;98994.16;;;29.64;20.49
49759;BME280;70329;45.524;10.194;2023-08-06T16:20:46;98989.78;;;29.60;21.13
49759;BME280;70329;45.524;10.194;2023-08-06T16:23:13;98994.41;;;29.50;21.21
49759;BME280;70329;45.524;10.194;2023-08-06T16:25:41;98996.25;;;29.37;21.70
49759;BME280;70329;45.524;10.194;2023-08-06T16:28:12;98998.34;;;29.33;21.73
49759;BME280;70329;45.524;10.194;2023-08-06T16:30:46;99006.31;;;29.38;22.39
49759;BME280;70329;45.524;10.194;2023-08-06T16:33:12;99004.34;;;29.35;22.63
49759;BME280;70329;45.524;10.194;2023-08-06T16:35:39;99005.47;;;29.41;22.87
49759;BME280;70329;45.524;10.194;2023-08-06T16:38:05;99006.66;;;29.40;22.96
49759;BME280;70329;45.524;10.194;2023-08-06T16:40:31;99012.00;;;29.34;23.43
49759;BME280;70329;45.524;10.194;2023-08-06T16:42:57;99012.44;;;29.33;23.09
49759;BME280;70329;45.524;10.194;2023-08-06T16:45:22;99017.78;;;29.27;23.10
49759;BME280;70329;45.524;10.194;2023-08-06T16:47:47;99009.53;;;29.13;22.85
49759;BME280;70329;45.524;10.194;2023-08-06T16:50:14;99011.69;;;29.06;22.78
49759;BME280;70329;45.524;10.194;2023-08-06T16:52:40;99023.09;;;28.95;21.60
49759;BME280;70329;45.524;10.194;2023-08-06T16:55:07;99034.44;;;28.92;22.43
49759;BME280;70329;45.524;10.194;2023-08-06T16:57:33;99024.50;;;28.83;21.98
49759;BME280;70329;45.524;10.194;2023-08-06T16:59:59;99019.72;;;28.80;21.72
49759;BME280;70329;45.524;10.194;2023-08-06T17:02:24;99024.19;;;28.78;22.17
49759;BME280;70329;45.524;10.194;2023-08-06T17:04:49;99035.19;;;28.69;22.96
49759;BME280;70329;45.524;10.194;2023-08-06T17:07:15;99030.34;;;28.69;21.22
49759;BME280;70329;45.524;10.194;2023-08-06T17:09:40;99036.03;;;28.62;21.29
49759;BME280;70329;45.524;10.194;2023-08-06T17:12:07;99040.13;;;28.58;21.90
49759;BME280;70329;45.524;10.194;2023-08-06T17:14:33;99043.84;;;28.51;22.15
49759;BME280;70329;45.524;10.194;2023-08-06T17:16:58;99050.72;;;28.50;22.56
49759;BME280;70329;45.524;10.194;2023-08-06T17:19:23;99052.88;;;28.39;22.66
49759;BME280;70329;45.524;10.194;2023-08-06T17:21:49;99059.84;;;28.27;22.67
49759;BME280;70329;45.524;10.194;2023-08-06T17:24:14;99058.34;;;28.19;22.26
49759;BME280;70329;45.524;10.194;2023-08-06T17:26:39;99054.28;;;28.20;23.00
49759;BME280;70329;45.524;10.194;2023-08-06T17:29:05;99062.75;;;28.17;23.47
49759;BME280;70329;45.524;10.194;2023-08-06T17:31:30;99066.38;;;28.17;23.10
49759;BME280;70329;45.524;10.194;2023-08-06T17:33:56;99062.91;;;28.06;23.08
49759;BME280;70329;45.524;10.194;2023-08-06T17:36:21;99066.25;;;27.91;23.66
49759;BME280;70329;45.524;10.194;2023-08-06T17:38:46;99070.78;;;27.81;23.22
49759;BME280;70329;45.524;10.194;2023-08-06T17:41:12;99074.41;;;27.78;23.74
49759;BME280;70329;45.524;10.194;2023-08-06T17:43:37;99076.84;;;27.76;23.93
49759;BME280;70329;45.524;10.194;2023-08-06T17:46:03;99079.41;;;27.63;23.66
49759;BME280;70329;45.524;10.194;2023-08-06T17:48:28;99088.78;;;27.50;24.10
49759;BME280;70329;45.524;10.194;2023-08-06T17:50:54;99088.00;;;27.42;24.02
49759;BME280;70329;45.524;10.194;2023-08-06T17:53:19;99085.63;;;27.34;24.25
49759;BME280;70329;45.524;10.194;2023-08-06T17:55:44;99091.78;;;27.22;24.40
49759;BME280;70329;45.524;10.194;2023-08-06T17:58:10;99101.13;;;27.04;24.23
49759;BME280;70329;45.524;10.194;2023-08-06T18:00:35;99099.16;;;26.94;25.00
49759;BME280;70329;45.524;10.194;2023-08-06T18:03:01;99102.41;;;26.86;25.30
49759;BME280;70329;45.524;10.194;2023-08-06T18:05:26;99101.25;;;26.76;25.13
49759;BME280;70329;45.524;10.194;2023-08-06T18:07:55;99096.50;;;26.66;24.73
49759;BME280;70329;45.524;10.194;2023-08-06T18:10:21;99105.00;;;26.52;25.32
49759;BME280;70329;45.524;10.194;2023-08-06T18:12:46;99112.25;;;26.39;26.51
49759;BME280;70329;45.524;10.194;2023-08-06T18:15:11;99111.47;;;26.28;26.43
49759;BME280;70329;45.524;10.194;2023-08-06T18:17:38;99111.50;;;26.21;26.66
49759;BME280;70329;45.524;10.194;2023-08-06T18:20:07;99120.31;;;26.12;26.51
49759;BME280;70329;45.524;10.194;2023-08-06T18:22:33;99112.72;;;26.05;26.79
49759;BME280;70329;45.524;10.194;2023-08-06T18:24:59;99124.78;;;25.99;27.51
49759;BME280;70329;45.524;10.194;2023-08-06T18:27:27;99125.19;;;25.90;26.94
49759;BME280;70329;45.524;10.194;2023-08-06T18:29:52;99123.97;;;25.81;26.64
49759;BME280;70329;45.524;10.194;2023-08-06T18:32:18;99125.59;;;25.75;26.65
49759;BME280;70329;45.524;10.194;2023-08-06T18:34:43;99134.00;;;25.75;26.54
49759;BME280;70329;45.524;10.194;2023-08-06T18:37:08;99128.00;;;25.69;26.22
49759;BME280;70329;45.524;10.194;2023-08-06T18:39:34;99138.81;;;25.64;25.76
49759;BME280;70329;45.524;10.194;2023-08-06T18:41:59;99145.63;;;25.63;26.17
49759;BME280;70329;45.524;10.194;2023-08-06T18:44:24;99145.63;;;25.56;25.65
49759;BME280;70329;45.524;10.194;2023-08-06T18:46:50;99150.81;;;25.61;25.44
49759;BME280;70329;45.524;10.194;2023-08-06T18:49:15;99146.81;;;25.48;26.29
49759;BME280;70329;45.524;10.194;2023-08-06T18:51:40;99153.19;;;25.44;26.19
49759;BME280;70329;45.524;10.194;2023-08-06T18:54:06;99154.38;;;25.36;25.88
49759;BME280;70329;45.524;10.194;2023-08-06T18:56:31;99155.56;;;25.35;26.01
49759;BME280;70329;45.524;10.194;2023-08-06T18:58:56;99164.78;;;25.25;26.14
49759;BME280;70329;45.524;10.194;2023-08-06T19:01:22;99171.97;;;25.16;26.53
49759;BME280;70329;45.524;10.194;2023-08-06T19:03:47;99175.53;;;25.02;26.79
49759;BME280;70329;45.524;10.194;2023-08-06T19:06:13;99185.56;;;25.10;26.55
49759;BME280;70329;45.524;10.194;2023-08-06T19:08:39;99187.16;;;25.01;26.86
49759;BME280;70329;45.524;10.194;2023-08-06T19:11:04;99191.50;;;24.91;26.81
49759;BME280;70329;45.524;10.194;2023-08-06T19:13:29;99198.66;;;24.85;27.22
49759;BME280;70329;45.524;10.194;2023-08-06T19:15:55;99196.66;;;24.82;27.33
49759;BME280;70329;45.524;10.194;2023-08-06T19:18:20;99199.78;;;24.70;27.86
49759;BME280;70329;45.524;10.194;2023-08-06T19:20:46;99207.78;;;24.64;28.20
49759;BME280;70329;45.524;10.194;2023-08-06T19:23:11;99213.41;;;24.68;28.21
49759;BME280;70329;45.524;10.194;2023-08-06T19:25:48;99216.50;;;24.56;28.54
49759;BME280;70329;45.524;10.194;2023-08-06T19:28:14;99233.25;;;24.49;29.47
49759;BME280;70329;45.524;10.194;2023-08-06T19:30:42;99235.25;;;24.45;29.71
49759;BME280;70329;45.524;10.194;2023-08-06T19:33:09;99234.03;;;24.42;29.94
49759;BME280;70329;45.524;10.194;2023-08-06T19:35:41;99240.78;;;24.34;29.42
49759;BME280;70329;45.524;10.194;2023-08-06T19:38:11;99251.91;;;24.27;29.31
49759;BME280;70329;45.524;10.194;2023-08-06T19:40:36;99255.56;;;24.31;35.16
49759;BME280;70329;45.524;10.194;2023-08-06T19:43:02;99261.81;;;24.14;29.29
49759;BME280;70329;45.524;10.194;2023-08-06T19:45:27;99264.25;;;24.19;30.11
49759;BME280;70329;45.524;10.194;2023-08-06T19:47:52;99265.44;;;24.18;31.27
49759;BME280;70329;45.524;10.194;2023-08-06T19:50:18;99265.69;;;24.02;30.88
49759;BME280;70329;45.524;10.194;2023-08-06T19:52:43;99269.28;;;24.03;29.86
49759;BME280;70329;45.524;10.194;2023-08-06T19:55:08;99272.84;;;24.00;30.94
49759;BME280;70329;45.524;10.194;2023-08-06T19:57:33;99274.38;;;23.94;28.41
49759;BME280;70329;45.524;10.194;2023-08-06T20:00:00;99281.19;;;23.96;28.99
49759;BME280;70329;45.524;10.194;2023-08-06T20:02:25;99276.03;;;23.98;29.12
49759;BME280;70329;45.524;10.194;2023-08-06T20:04:51;99283.19;;;23.96;29.14
49759;BME280;70329;45.524;10.194;2023-08-06T20:07:16;99291.16;;;23.94;29.19
49759;BME280;70329;45.524;10.194;2023-08-06T20:09:41;99303.44;;;23.82;30.57
49759;BME280;70329;45.524;10.194;2023-08-06T20:12:07;99303.38;;;23.75;30.97
49759;BME280;70329;45.524;10.194;2023-08-06T20:14:32;99314.81;;;23.63;33.28
49759;BME280;70329;45.524;10.194;2023-08-06T20:16:58;99325.59;;;23.61;33.13
49759;BME280;70329;45.524;10.194;2023-08-06T20:19:23;99321.78;;;23.43;34.02
49759;BME280;70329;45.524;10.194;2023-08-06T20:21:49;99326.53;;;23.39;34.38
49759;BME280;70329;45.524;10.194;2023-08-06T20:24:14;99337.31;;;23.40;34.99
49759;BME280;70329;45.524;10.194;2023-08-06T20:26:40;99338.13;;;23.41;34.99
49759;BME280;70329;45.524;10.194;2023-08-06T20:29:05;99344.59;;;23.45;35.71
49759;BME280;70329;45.524;10.194;2023-08-06T20:31:30;99344.53;;;23.41;36.58
49759;BME280;70329;45.524;10.194;2023-08-06T20:33:56;99342.53;;;23.42;37.08
49759;BME280;70329;45.524;10.194;2023-08-06T20:36:21;99347.38;;;23.45;36.09
49759;BME280;70329;45.524;10.194;2023-08-06T20:38:46;99354.94;;;23.44;36.58
49759;BME280;70329;45.524;10.194;2023-08-06T20:41:12;99357.75;;;23.44;37.46
49759;BME280;70329;45.524;10.194;2023-08-06T20:43:37;99369.72;;;23.45;37.87
49759;BME280;70329;45.524;10.194;2023-08-06T20:46:03;99368.47;;;23.42;39.08
49759;BME280;70329;45.524;10.194;2023-08-06T20:48:29;99363.53;;;23.32;39.46
49759;BME280;70329;45.524;10.194;2023-08-06T20:50:55;99378.53;;;23.20;41.36
49759;BME280;70329;45.524;10.194;2023-08-06T20:53:20;99378.94;;;23.19;41.57
49759;BME280;70329;45.524;10.194;2023-08-06T20:55:59;99377.72;;;23.16;42.64
49759;BME280;70329;45.524;10.194;2023-08-06T20:58:25;99397.59;;;23.11;44.00
49759;BME280;70329;45.524;10.194;2023-08-06T21:00:53;99389.97;;;23.08;44.79
49759;BME280;70329;45.524;10.194;2023-08-06T21:03:21;99388.75;;;23.06;45.61
49759;BME280;70329;45.524;10.194;2023-08-06T21:05:46;99395.47;;;22.75;48.05
49759;BME280;70329;45.524;10.194;2023-08-06T21:08:11;99394.59;;;22.71;49.73
49759;BME280;70329;45.524;10.194;2023-08-06T21:10:37;99398.06;;;22.65;50.01
49759;BME280;70329;45.524;10.194;2023-08-06T21:13:02;99400.78;;;22.61;51.09
49759;BME280;70329;45.524;10.194;2023-08-06T21:15:27;99402.53;;;22.46;54.02
49759;BME280;70329;45.524;10.194;2023-08-06T21:17:53;99406.72;;;22.37;55.61
49759;BME280;70329;45.524;10.194;2023-08-06T21:20:18;99421.75;;;22.29;56.33
49759;BME280;70329;45.524;10.194;2023-08-06T21:22:43;99436.91;;;22.31;56.40
49759;BME280;70329;45.524;10.194;2023-08-06T21:25:09;99454.00;;;22.07;58.56
49759;BME280;70329;45.524;10.194;2023-08-06T21:27:34;99464.44;;;22.10;58.34
49759;BME280;70329;45.524;10.194;2023-08-06T21:29:59;99466.47;;;22.13;58.13
49759;BME280;70329;45.524;10.194;2023-08-06T21:32:25;99469.63;;;22.12;58.84
49759;BME280;70329;45.524;10.194;2023-08-06T21:34:50;99470.44;;;22.12;58.43
49759;BME280;70329;45.524;10.194;2023-08-06T21:37:15;99475.94;;;22.09;58.28
49759;BME280;70329;45.524;10.194;2023-08-06T21:39:41;99483.38;;;22.01;58.60
49759;BME280;70329;45.524;10.194;2023-08-06T21:42:06;99485.28;;;21.97;58.61
49759;BME280;70329;45.524;10.194;2023-08-06T21:44:32;99482.03;;;21.95;58.46
49759;BME280;70329;45.524;10.194;2023-08-06T21:46:57;99479.75;;;21.81;58.72
49759;BME280;70329;45.524;10.194;2023-08-06T21:49:23;99489.66;;;21.44;59.58
49759;BME280;70329;45.524;10.194;2023-08-06T21:51:49;99478.38;;;21.37;59.33
49759;BME280;70329;45.524;10.194;2023-08-06T21:54:14;99497.44;;;21.35;59.46
49759;BME280;70329;45.524;10.194;2023-08-06T21:56:42;99494.94;;;21.30;59.71
49759;BME280;70329;45.524;10.194;2023-08-06T21:59:08;99494.78;;;21.23;59.87
49759;BME280;70329;45.524;10.194;2023-08-06T22:01:33;99505.28;;;21.14;60.20
49759;BME280;70329;45.524;10.194;2023-08-06T22:03:59;99517.25;;;21.14;60.32
49759;BME280;70329;45.524;10.194;2023-08-06T22:06:24;99521.81;;;21.22;59.81
49759;BME280;70329;45.524;10.194;2023-08-06T22:08:49;99521.38;;;21.20;60.74
49759;BME280;70329;45.524;10.194;2023-08-06T22:11:15;99521.38;;;21.20;60.47
49759;BME280;70329;45.524;10.194;2023-08-06T22:13:40;99523.72;;;21.18;60.50
49759;BME280;70329;45.524;10.194;2023-08-06T22:16:06;99522.91;;;21.18;60.45
49759;BME280;70329;45.524;10.194;2023-08-06T22:18:32;99524.88;;;21.17;60.59
49759;BME280;70329;45.524;10.194;2023-08-06T22:20:57;99534.75;;;21.15;61.17
49759;BME280;70329;45.524;10.194;2023-08-06T22:23:23;99547.78;;;21.11;61.09
49759;BME280;70329;45.524;10.194;2023-08-06T22:25:49;99549.41;;;21.12;61.15
49759;BME280;70329;45.524;10.194;2023-08-06T22:28:17;99553.34;;;20.95;61.77
49759;BME280;70329;45.524;10.194;2023-08-06T22:30:42;99558.47;;;20.93;62.06
49759;BME280;70329;45.524;10.194;2023-08-06T22:33:07;99562.50;;;20.96;62.38
49759;BME280;70329;45.524;10.194;2023-08-06T22:35:33;99558.72;;;21.04;61.99
49759;BME280;70329;45.524;10.194;2023-08-06T22:37:58;99558.47;;;21.09;61.96
49759;BME280;70329;45.524;10.194;2023-08-06T22:40:24;99554.09;;;21.08;62.61
49759;BME280;70329;45.524;10.194;2023-08-06T22:42:49;99555.34;;;21.10;62.87
49759;BME280;70329;45.524;10.194;2023-08-06T22:45:14;99556.13;;;21.11;62.79
49759;BME280;70329;45.524;10.194;2023-08-06T22:47:40;99561.69;;;21.11;62.63
49759;BME280;70329;45.524;10.194;2023-08-06T22:50:07;99564.03;;;21.09;62.45
49759;BME280;70329;45.524;10.194;2023-08-06T22:52:32;99575.56;;;21.07;62.97
49759;BME280;70329;45.524;10.194;2023-08-06T22:54:58;99580.63;;;21.05;63.28
49759;BME280;70329;45.524;10.194;2023-08-06T22:57:23;99588.97;;;21.05;63.55
49759;BME280;70329;45.524;10.194;2023-08-06T22:59:49;99593.28;;;21.03;63.63
49759;BME280;70329;45.524;10.194;2023-08-06T23:02:14;99601.28;;;21.04;63.54
49759;BME280;70329;45.524;10.194;2023-08-06T23:04:39;99610.91;;;21.07;63.34
49759;BME280;70329;45.524;10.194;2023-08-06T23:07:05;99601.44;;;21.08;63.61
49759;BME280;70329;45.524;10.194;2023-08-06T23:09:31;99601.44;;;21.08;63.65
49759;BME280;70329;45.524;10.194;2023-08-06T23:11:56;99598.25;;;21.09;63.53
49759;BME280;70329;45.524;10.194;2023-08-06T23:14:22;99608.59;;;21.09;63.72
49759;BME280;70329;45.524;10.194;2023-08-06T23:16:47;99594.66;;;21.09;63.68
49759;BME280;70329;45.524;10.194;2023-08-06T23:21:39;99619.97;;;21.04;64.14
49759;BME280;70329;45.524;10.194;2023-08-06T23:24:04;99608.72;;;20.84;64.86
49759;BME280;70329;45.524;10.194;2023-08-06T23:26:30;99601.63;;;20.87;64.86
49759;BME280;70329;45.524;10.194;2023-08-06T23:28:55;99600.09;;;20.89;64.73
49759;BME280;70329;45.524;10.194;2023-08-06T23:31:20;99610.53;;;20.92;64.46
49759;BME280;70329;45.524;10.194;2023-08-06T23:33:46;99608.91;;;20.91;63.99
49759;BME280;70329;45.524;10.194;2023-08-06T23:36:12;99609.72;;;20.92;64.63
49759;BME280;70329;45.524;10.194;2023-08-06T23:38:37;99610.09;;;20.90;64.51
49759;BME280;70329;45.524;10.194;2023-08-06T23:41:03;99600.22;;;20.93;64.41
49759;BME280;70329;45.524;10.194;2023-08-06T23:43:28;99609.38;;;20.94;64.26
49759;BME280;70329;45.524;10.194;2023-08-06T23:45:53;99608.84;;;20.88;60.00
49759;BME280;70329;45.524;10.194;2023-08-06T23:48:21;99602.97;;;20.77;58.16
49759;BME280;70329;45.524;10.194;2023-08-06T23:50:47;99602.44;;;20.44;58.10
49759;BME280;70329;45.524;10.194;2023-08-06T23:53:12;99595.16;;;20.40;57.45
49759;BME280;70329;45.524;10.194;2023-08-06T23:55:37;99599.41;;;20.49;56.83
49759;BME280;70329;45.524;10.194;2023-08-06T23:58:03;99600.41;;;20.57;56.09
